sensor_id;sensor_type;location;lat;lon;timestamp;P1;durP1;ratioP1;P2;durP2;ratioP2
8825;SDS011;4449;50.872;4.714;2022-08-01T00:02:20;1.80;;;1.77;;
8825;SDS011;4449;50.872;4.714;2022-08-01T00:04:48;2.20;;;1.67;;
8825;SDS011;4449;50.872;4.714;2022-08-01T00:07:17;1.83;;;1.73;;
8825;SDS011;4449;50.872;4.714;2022-08-01T00:09:44;1.63;;;1.52;;
8825;SDS011;4449;50.872;4.714;2022-08-01T00:12:12;1.85;;;1.50;;
8825;SDS011;4449;50.872;4.714;2022-08-01T00:14:40;3.03;;;1.65;;
8825;SDS011;4449;50.872;4.714;2022-08-01T00:17:08;2.22;;;2.03;;
8825;SDS011;4449;50.872;4.714;2022-08-01T00:19:35;1.60;;;1.50;;
8825;SDS011;4449;50.872;4.714;2022-08-01T00:22:03;2.00;;;1.80;;
8825;SDS011;4449;50.872;4.714;2022-08-01T00:24:32;2.25;;;2.05;;
8825;SDS011;4449;50.872;4.714;2022-08-01T00:27:00;2.40;;;2.20;;
8825;SDS011;4449;50.872;4.714;2022-08-01T00:29:27;2.73;;;2.50;;
8825;SDS011;4449;50.872;4.714;2022-08-01T00:31:55;2.40;;;2.30;;
8825;SDS011;4449;50.872;4.714;2022-08-01T00:34:23;2.83;;;2.60;;
8825;SDS011;4449;50.872;4.714;2022-08-01T00:36:51;2.50;;;2.30;;
8825;SDS011;4449;50.872;4.714;2022-08-01T00:39:19;3.67;;;2.63;;
8825;SDS011;4449;50.872;4.714;2022-08-01T00:41:48;4.30;;;2.42;;
8825;SDS011;4449;50.872;4.714;2022-08-01T00:44:16;2.88;;;2.60;;
8825;SDS011;4449;50.872;4.714;2022-08-01T00:46:43;3.17;;;2.53;;
8825;SDS011;4449;50.872;4.714;2022-08-01T00:49:11;3.47;;;2.55;;
8825;SDS011;4449;50.872;4.714;2022-08-01T00:51:39;3.40;;;2.72;;
8825;SDS011;4449;50.872;4.714;2022-08-01T00:54:07;3.22;;;2.90;;
8825;SDS011;4449;50.872;4.714;2022-08-01T00:56:37;2.50;;;2.40;;
8825;SDS011;4449;50.872;4.714;2022-08-01T00:59:06;3.10;;;2.80;;
8825;SDS011;4449;50.872;4.714;2022-08-01T01:01:34;3.58;;;2.72;;
8825;SDS011;4449;50.872;4.714;2022-08-01T01:04:02;2.70;;;2.50;;
8825;SDS011;4449;50.872;4.714;2022-08-01T01:06:33;4.17;;;2.97;;
8825;SDS011;4449;50.872;4.714;2022-08-01T01:09:17;3.63;;;3.30;;
8825;SDS011;4449;50.872;4.714;2022-08-01T01:11:47;3.53;;;3.00;;
8825;SDS011;4449;50.872;4.714;2022-08-01T01:14:21;3.38;;;2.85;;
8825;SDS011;4449;50.872;4.714;2022-08-01T01:16:50;3.65;;;3.00;;
8825;SDS011;4449;50.872;4.714;2022-08-01T01:19:23;3.97;;;3.05;;
8825;SDS011;4449;50.872;4.714;2022-08-01T01:22:00;4.88;;;3.45;;
8825;SDS011;4449;50.872;4.714;2022-08-01T01:24:35;3.50;;;3.17;;
8825;SDS011;4449;50.872;4.714;2022-08-01T01:27:06;4.90;;;3.35;;
8825;SDS011;4449;50.872;4.714;2022-08-01T01:29:39;4.10;;;3.10;;
8825;SDS011;4449;50.872;4.714;2022-08-01T01:32:09;4.80;;;3.28;;
8825;SDS011;4449;50.872;4.714;2022-08-01T01:34:40;4.82;;;3.20;;
8825;SDS011;4449;50.872;4.714;2022-08-01T01:37:11;4.47;;;4.00;;
8825;SDS011;4449;50.872;4.714;2022-08-01T01:39:40;4.03;;;3.70;;
8825;SDS011;4449;50.872;4.714;2022-08-01T01:42:08;3.70;;;3.25;;
8825;SDS011;4449;50.872;4.714;2022-08-01T01:44:36;5.28;;;3.50;;
8825;SDS011;4449;50.872;4.714;2022-08-01T01:47:06;4.07;;;3.78;;
8825;SDS011;4449;50.872;4.714;2022-08-01T01:49:34;4.22;;;3.40;;
8825;SDS011;4449;50.872;4.714;2022-08-01T01:52:02;4.75;;;3.58;;
8825;SDS011;4449;50.872;4.714;2022-08-01T01:54:32;3.70;;;3.40;;
8825;SDS011;4449;50.872;4.714;2022-08-01T01:57:00;4.03;;;3.60;;
8825;SDS011;4449;50.872;4.714;2022-08-01T01:59:30;4.07;;;3.65;;
8825;SDS011;4449;50.872;4.714;2022-08-01T02:01:59;4.75;;;3.40;;
8825;SDS011;4449;50.872;4.714;2022-08-01T02:04:30;3.95;;;3.38;;
8825;SDS011;4449;50.872;4.714;2022-08-01T02:06:59;3.80;;;3.50;;
8825;SDS011;4449;50.872;4.714;2022-08-01T02:09:28;4.03;;;3.55;;
8825;SDS011;4449;50.872;4.714;2022-08-01T02:11:56;3.80;;;3.50;;
8825;SDS011;4449;50.872;4.714;2022-08-01T02:14:25;4.47;;;3.42;;
8825;SDS011;4449;50.872;4.714;2022-08-01T02:16:53;3.65;;;3.35;;
8825;SDS011;4449;50.872;4.714;2022-08-01T02:19:22;3.35;;;3.03;;
8825;SDS011;4449;50.872;4.714;2022-08-01T02:21:52;4.68;;;3.58;;
8825;SDS011;4449;50.872;4.714;2022-08-01T02:24:24;6.88;;;3.38;;
8825;SDS011;4449;50.872;4.714;2022-08-01T02:26:55;4.80;;;3.33;;
8825;SDS011;4449;50.872;4.714;2022-08-01T02:29:27;4.20;;;3.45;;
8825;SDS011;4449;50.872;4.714;2022-08-01T02:31:57;3.65;;;3.35;;
8825;SDS011;4449;50.872;4.714;2022-08-01T02:34:25;4.43;;;3.58;;
8825;SDS011;4449;50.872;4.714;2022-08-01T02:36:58;4.75;;;3.55;;
8825;SDS011;4449;50.872;4.714;2022-08-01T02:39:28;4.60;;;3.85;;
8825;SDS011;4449;50.872;4.714;2022-08-01T02:41:58;3.90;;;3.28;;
8825;SDS011;4449;50.872;4.714;2022-08-01T02:44:28;4.38;;;3.97;;
8825;SDS011;4449;50.872;4.714;2022-08-01T02:46:58;5.00;;;3.70;;
8825;SDS011;4449;50.872;4.714;2022-08-01T02:49:28;4.18;;;3.78;;
8825;SDS011;4449;50.872;4.714;2022-08-01T02:52:00;4.15;;;3.85;;
8825;SDS011;4449;50.872;4.714;2022-08-01T02:54:28;5.75;;;3.90;;
8825;SDS011;4449;50.872;4.714;2022-08-01T02:56:57;5.18;;;4.70;;
8825;SDS011;4449;50.872;4.714;2022-08-01T02:59:26;7.35;;;4.80;;
8825;SDS011;4449;50.872;4.714;2022-08-01T03:01:58;4.95;;;4.18;;
8825;SDS011;4449;50.872;4.714;2022-08-01T03:04:26;5.23;;;4.40;;
8825;SDS011;4449;50.872;4.714;2022-08-01T03:06:54;5.85;;;5.10;;
8825;SDS011;4449;50.872;4.714;2022-08-01T03:09:32;10.15;;;5.60;;
8825;SDS011;4449;50.872;4.714;2022-08-01T03:12:00;5.88;;;5.32;;
8825;SDS011;4449;50.872;4.714;2022-08-01T03:14:28;7.30;;;5.70;;
8825;SDS011;4449;50.872;4.714;2022-08-01T03:16:57;8.60;;;6.20;;
8825;SDS011;4449;50.872;4.714;2022-08-01T03:19:27;7.65;;;6.25;;
8825;SDS011;4449;50.872;4.714;2022-08-01T03:21:55;7.40;;;6.28;;
8825;SDS011;4449;50.872;4.714;2022-08-01T03:24:25;7.70;;;6.40;;
8825;SDS011;4449;50.872;4.714;2022-08-01T03:26:54;9.00;;;7.05;;
8825;SDS011;4449;50.872;4.714;2022-08-01T03:29:26;7.80;;;6.40;;
8825;SDS011;4449;50.872;4.714;2022-08-01T03:31:55;9.20;;;7.55;;
8825;SDS011;4449;50.872;4.714;2022-08-01T03:34:23;9.35;;;7.15;;
8825;SDS011;4449;50.872;4.714;2022-08-01T03:36:55;7.70;;;6.55;;
8825;SDS011;4449;50.872;4.714;2022-08-01T03:39:25;10.63;;;7.20;;
8825;SDS011;4449;50.872;4.714;2022-08-01T03:41:57;8.23;;;7.03;;
8825;SDS011;4449;50.872;4.714;2022-08-01T03:44:27;8.93;;;7.78;;
8825;SDS011;4449;50.872;4.714;2022-08-01T03:46:57;12.25;;;8.20;;
8825;SDS011;4449;50.872;4.714;2022-08-01T03:49:27;12.50;;;8.88;;
8825;SDS011;4449;50.872;4.714;2022-08-01T03:51:56;11.40;;;8.67;;
8825;SDS011;4449;50.872;4.714;2022-08-01T03:54:24;9.48;;;8.00;;
8825;SDS011;4449;50.872;4.714;2022-08-01T03:56:56;13.68;;;9.00;;
8825;SDS011;4449;50.872;4.714;2022-08-01T03:59:25;13.27;;;8.50;;
8825;SDS011;4449;50.872;4.714;2022-08-01T04:01:53;12.10;;;8.50;;
8825;SDS011;4449;50.872;4.714;2022-08-01T04:04:24;14.00;;;9.10;;
8825;SDS011;4449;50.872;4.714;2022-08-01T04:06:55;13.82;;;9.27;;
8825;SDS011;4449;50.872;4.714;2022-08-01T04:09:29;14.70;;;10.52;;
8825;SDS011;4449;50.872;4.714;2022-08-01T04:11:59;14.23;;;9.93;;
8825;SDS011;4449;50.872;4.714;2022-08-01T04:14:27;19.50;;;10.90;;
8825;SDS011;4449;50.872;4.714;2022-08-01T04:16:55;15.50;;;10.35;;
8825;SDS011;4449;50.872;4.714;2022-08-01T04:19:22;15.85;;;10.20;;
8825;SDS011;4449;50.872;4.714;2022-08-01T04:21:51;16.60;;;11.30;;
8825;SDS011;4449;50.872;4.714;2022-08-01T04:24:19;16.50;;;10.60;;
8825;SDS011;4449;50.872;4.714;2022-08-01T04:26:49;16.58;;;10.68;;
8825;SDS011;4449;50.872;4.714;2022-08-01T04:29:19;15.15;;;10.88;;
8825;SDS011;4449;50.872;4.714;2022-08-01T04:31:48;16.30;;;10.70;;
8825;SDS011;4449;50.872;4.714;2022-08-01T04:34:20;15.50;;;10.55;;
8825;SDS011;4449;50.872;4.714;2022-08-01T04:36:50;20.13;;;12.07;;
8825;SDS011;4449;50.872;4.714;2022-08-01T04:39:18;15.85;;;11.10;;
8825;SDS011;4449;50.872;4.714;2022-08-01T04:41:46;15.98;;;10.82;;
8825;SDS011;4449;50.872;4.714;2022-08-01T04:44:14;14.30;;;11.45;;
8825;SDS011;4449;50.872;4.714;2022-08-01T04:46:43;13.43;;;10.20;;
8825;SDS011;4449;50.872;4.714;2022-08-01T04:49:12;13.95;;;10.23;;
8825;SDS011;4449;50.872;4.714;2022-08-01T04:51:51;14.13;;;9.50;;
8825;SDS011;4449;50.872;4.714;2022-08-01T04:54:23;13.40;;;10.15;;
8825;SDS011;4449;50.872;4.714;2022-08-01T04:56:50;15.38;;;10.00;;
8825;SDS011;4449;50.872;4.714;2022-08-01T04:59:21;14.27;;;9.05;;
8825;SDS011;4449;50.872;4.714;2022-08-01T05:02:08;13.63;;;9.63;;
8825;SDS011;4449;50.872;4.714;2022-08-01T05:04:37;13.20;;;9.43;;
8825;SDS011;4449;50.872;4.714;2022-08-01T05:07:06;11.32;;;8.82;;
8825;SDS011;4449;50.872;4.714;2022-08-01T05:09:34;12.20;;;8.68;;
8825;SDS011;4449;50.872;4.714;2022-08-01T05:12:05;13.02;;;9.00;;
8825;SDS011;4449;50.872;4.714;2022-08-01T05:14:33;12.85;;;9.68;;
8825;SDS011;4449;50.872;4.714;2022-08-01T05:17:01;14.80;;;9.32;;
8825;SDS011;4449;50.872;4.714;2022-08-01T05:19:31;11.30;;;8.93;;
8825;SDS011;4449;50.872;4.714;2022-08-01T05:22:00;12.10;;;9.00;;
8825;SDS011;4449;50.872;4.714;2022-08-01T05:24:29;10.07;;;8.03;;
8825;SDS011;4449;50.872;4.714;2022-08-01T05:26:57;11.33;;;8.03;;
8825;SDS011;4449;50.872;4.714;2022-08-01T05:29:25;8.90;;;6.93;;
8825;SDS011;4449;50.872;4.714;2022-08-01T05:31:53;9.10;;;7.28;;
8825;SDS011;4449;50.872;4.714;2022-08-01T05:34:21;9.80;;;7.30;;
8825;SDS011;4449;50.872;4.714;2022-08-01T05:36:51;10.05;;;7.43;;
8825;SDS011;4449;50.872;4.714;2022-08-01T05:39:18;10.73;;;7.45;;
8825;SDS011;4449;50.872;4.714;2022-08-01T05:41:46;9.80;;;7.53;;
8825;SDS011;4449;50.872;4.714;2022-08-01T05:44:14;9.48;;;7.38;;
8825;SDS011;4449;50.872;4.714;2022-08-01T05:46:42;8.93;;;7.10;;
8825;SDS011;4449;50.872;4.714;2022-08-01T05:49:09;9.13;;;7.88;;
8825;SDS011;4449;50.872;4.714;2022-08-01T05:51:37;11.27;;;8.10;;
8825;SDS011;4449;50.872;4.714;2022-08-01T05:54:06;11.43;;;8.47;;
8825;SDS011;4449;50.872;4.714;2022-08-01T05:56:34;9.75;;;8.10;;
8825;SDS011;4449;50.872;4.714;2022-08-01T05:59:02;12.02;;;8.13;;
8825;SDS011;4449;50.872;4.714;2022-08-01T06:01:30;10.32;;;7.50;;
8825;SDS011;4449;50.872;4.714;2022-08-01T06:03:57;8.32;;;7.15;;
8825;SDS011;4449;50.872;4.714;2022-08-01T06:06:25;9.23;;;7.10;;
8825;SDS011;4449;50.872;4.714;2022-08-01T06:08:53;8.50;;;6.93;;
8825;SDS011;4449;50.872;4.714;2022-08-01T06:11:22;11.10;;;7.30;;
8825;SDS011;4449;50.872;4.714;2022-08-01T06:13:50;7.80;;;6.47;;
8825;SDS011;4449;50.872;4.714;2022-08-01T06:16:19;9.52;;;6.53;;
8825;SDS011;4449;50.872;4.714;2022-08-01T06:18:46;7.32;;;6.18;;
8825;SDS011;4449;50.872;4.714;2022-08-01T06:21:14;8.90;;;6.55;;
8825;SDS011;4449;50.872;4.714;2022-08-01T06:23:41;7.93;;;6.53;;
8825;SDS011;4449;50.872;4.714;2022-08-01T06:26:09;6.68;;;5.60;;
8825;SDS011;4449;50.872;4.714;2022-08-01T06:28:38;7.40;;;6.43;;
8825;SDS011;4449;50.872;4.714;2022-08-01T06:31:06;9.05;;;5.93;;
8825;SDS011;4449;50.872;4.714;2022-08-01T06:33:35;8.90;;;6.03;;
8825;SDS011;4449;50.872;4.714;2022-08-01T06:36:03;7.13;;;5.83;;
8825;SDS011;4449;50.872;4.714;2022-08-01T06:38:31;6.60;;;5.88;;
8825;SDS011;4449;50.872;4.714;2022-08-01T06:40:59;6.15;;;5.55;;
8825;SDS011;4449;50.872;4.714;2022-08-01T06:43:26;7.72;;;5.90;;
8825;SDS011;4449;50.872;4.714;2022-08-01T06:45:55;9.20;;;6.07;;
8825;SDS011;4449;50.872;4.714;2022-08-01T06:48:23;7.63;;;5.97;;
8825;SDS011;4449;50.872;4.714;2022-08-01T06:50:51;5.80;;;5.18;;
8825;SDS011;4449;50.872;4.714;2022-08-01T06:53:33;6.55;;;4.75;;
8825;SDS011;4449;50.872;4.714;2022-08-01T06:56:01;7.50;;;5.43;;
8825;SDS011;4449;50.872;4.714;2022-08-01T06:58:28;5.63;;;5.10;;
8825;SDS011;4449;50.872;4.714;2022-08-01T07:00:58;6.45;;;4.80;;
8825;SDS011;4449;50.872;4.714;2022-08-01T07:03:25;5.35;;;4.47;;
8825;SDS011;4449;50.872;4.714;2022-08-01T07:05:53;5.03;;;4.63;;
8825;SDS011;4449;50.872;4.714;2022-08-01T07:08:21;7.38;;;5.05;;
8825;SDS011;4449;50.872;4.714;2022-08-01T07:10:48;5.50;;;5.00;;
8825;SDS011;4449;50.872;4.714;2022-08-01T07:13:16;5.47;;;4.53;;
8825;SDS011;4449;50.872;4.714;2022-08-01T07:15:46;6.55;;;5.13;;
8825;SDS011;4449;50.872;4.714;2022-08-01T07:18:15;4.68;;;4.38;;
8825;SDS011;4449;50.872;4.714;2022-08-01T07:20:43;7.43;;;4.80;;
8825;SDS011;4449;50.872;4.714;2022-08-01T07:23:11;5.25;;;4.75;;
8825;SDS011;4449;50.872;4.714;2022-08-01T07:25:39;5.20;;;4.70;;
8825;SDS011;4449;50.872;4.714;2022-08-01T07:28:06;5.22;;;4.38;;
8825;SDS011;4449;50.872;4.714;2022-08-01T07:30:34;5.30;;;4.80;;
8825;SDS011;4449;50.872;4.714;2022-08-01T07:33:02;6.80;;;4.75;;
8825;SDS011;4449;50.872;4.714;2022-08-01T07:35:31;4.85;;;4.35;;
8825;SDS011;4449;50.872;4.714;2022-08-01T07:37:59;5.22;;;4.75;;
8825;SDS011;4449;50.872;4.714;2022-08-01T07:40:27;6.30;;;5.30;;
8825;SDS011;4449;50.872;4.714;2022-08-01T07:42:54;5.70;;;5.20;;
8825;SDS011;4449;50.872;4.714;2022-08-01T07:45:22;5.32;;;4.82;;
8825;SDS011;4449;50.872;4.714;2022-08-01T07:47:52;7.90;;;5.27;;
8825;SDS011;4449;50.872;4.714;2022-08-01T07:50:19;5.93;;;5.40;;
8825;SDS011;4449;50.872;4.714;2022-08-01T07:52:49;5.73;;;5.30;;
8825;SDS011;4449;50.872;4.714;2022-08-01T07:55:16;5.82;;;5.32;;
8825;SDS011;4449;50.872;4.714;2022-08-01T07:57:44;6.10;;;5.60;;
8825;SDS011;4449;50.872;4.714;2022-08-01T08:00:12;5.80;;;5.40;;
8825;SDS011;4449;50.872;4.714;2022-08-01T08:02:40;5.13;;;4.72;;
8825;SDS011;4449;50.872;4.714;2022-08-01T08:05:08;5.35;;;4.85;;
8825;SDS011;4449;50.872;4.714;2022-08-01T08:07:36;5.55;;;5.15;;
8825;SDS011;4449;50.872;4.714;2022-08-01T08:10:05;5.40;;;4.97;;
8825;SDS011;4449;50.872;4.714;2022-08-01T08:12:33;5.63;;;5.22;;
8825;SDS011;4449;50.872;4.714;2022-08-01T08:15:01;5.72;;;5.20;;
8825;SDS011;4449;50.872;4.714;2022-08-01T08:17:31;5.50;;;5.03;;
8825;SDS011;4449;50.872;4.714;2022-08-01T08:20:02;5.33;;;4.93;;
8825;SDS011;4449;50.872;4.714;2022-08-01T08:22:30;5.00;;;4.63;;
8825;SDS011;4449;50.872;4.714;2022-08-01T08:24:58;5.43;;;5.10;;
8825;SDS011;4449;50.872;4.714;2022-08-01T08:27:27;5.65;;;5.28;;
8825;SDS011;4449;50.872;4.714;2022-08-01T08:29:55;5.47;;;5.07;;
8825;SDS011;4449;50.872;4.714;2022-08-01T08:32:22;5.25;;;4.95;;
8825;SDS011;4449;50.872;4.714;2022-08-01T08:34:50;5.50;;;5.00;;
8825;SDS011;4449;50.872;4.714;2022-08-01T08:37:18;5.57;;;5.07;;
8825;SDS011;4449;50.872;4.714;2022-08-01T08:39:46;5.70;;;5.20;;
8825;SDS011;4449;50.872;4.714;2022-08-01T08:42:13;5.20;;;4.80;;
8825;SDS011;4449;50.872;4.714;2022-08-01T08:44:42;5.40;;;4.90;;
8825;SDS011;4449;50.872;4.714;2022-08-01T08:47:13;5.00;;;4.70;;
8825;SDS011;4449;50.872;4.714;2022-08-01T08:49:41;5.45;;;5.03;;
8825;SDS011;4449;50.872;4.714;2022-08-01T08:52:10;4.93;;;4.50;;
8825;SDS011;4449;50.872;4.714;2022-08-01T08:54:38;4.72;;;4.43;;
8825;SDS011;4449;50.872;4.714;2022-08-01T08:57:06;4.93;;;4.50;;
8825;SDS011;4449;50.872;4.714;2022-08-01T08:59:36;15.73;;;5.40;;
8825;SDS011;4449;50.872;4.714;2022-08-01T09:02:05;4.57;;;4.33;;
8825;SDS011;4449;50.872;4.714;2022-08-01T09:04:35;4.70;;;4.40;;
8825;SDS011;4449;50.872;4.714;2022-08-01T09:07:04;4.38;;;4.03;;
8825;SDS011;4449;50.872;4.714;2022-08-01T09:09:33;3.60;;;3.33;;
8825;SDS011;4449;50.872;4.714;2022-08-01T09:12:02;3.40;;;3.10;;
8825;SDS011;4449;50.872;4.714;2022-08-01T09:14:30;3.75;;;3.45;;
8825;SDS011;4449;50.872;4.714;2022-08-01T09:17:01;3.47;;;3.28;;
8825;SDS011;4449;50.872;4.714;2022-08-01T09:19:35;3.63;;;3.33;;
8825;SDS011;4449;50.872;4.714;2022-08-01T09:22:04;3.67;;;3.38;;
8825;SDS011;4449;50.872;4.714;2022-08-01T09:24:32;3.80;;;3.60;;
8825;SDS011;4449;50.872;4.714;2022-08-01T09:27:00;3.70;;;3.40;;
8825;SDS011;4449;50.872;4.714;2022-08-01T09:29:29;3.65;;;3.45;;
8825;SDS011;4449;50.872;4.714;2022-08-01T09:31:57;3.67;;;3.40;;
8825;SDS011;4449;50.872;4.714;2022-08-01T09:34:26;3.75;;;3.60;;
8825;SDS011;4449;50.872;4.714;2022-08-01T09:36:57;3.22;;;3.13;;
8825;SDS011;4449;50.872;4.714;2022-08-01T09:39:25;4.03;;;3.78;;
8825;SDS011;4449;50.872;4.714;2022-08-01T09:41:54;4.05;;;3.67;;
8825;SDS011;4449;50.872;4.714;2022-08-01T09:44:36;4.80;;;4.50;;
8825;SDS011;4449;50.872;4.714;2022-08-01T09:47:04;4.72;;;4.43;;
8825;SDS011;4449;50.872;4.714;2022-08-01T09:49:33;4.57;;;4.38;;
8825;SDS011;4449;50.872;4.714;2022-08-01T09:52:11;5.50;;;5.00;;
8825;SDS011;4449;50.872;4.714;2022-08-01T09:54:40;4.57;;;4.38;;
8825;SDS011;4449;50.872;4.714;2022-08-01T09:57:09;4.60;;;4.40;;
8825;SDS011;4449;50.872;4.714;2022-08-01T09:59:37;4.43;;;4.13;;
8825;SDS011;4449;50.872;4.714;2022-08-01T10:02:08;3.88;;;3.78;;
8825;SDS011;4449;50.872;4.714;2022-08-01T10:04:36;5.22;;;3.67;;
8825;SDS011;4449;50.872;4.714;2022-08-01T10:07:05;3.58;;;3.38;;
8825;SDS011;4449;50.872;4.714;2022-08-01T10:09:34;3.63;;;3.22;;
8825;SDS011;4449;50.872;4.714;2022-08-01T10:12:03;3.15;;;2.95;;
8825;SDS011;4449;50.872;4.714;2022-08-01T10:14:31;3.00;;;2.80;;
8825;SDS011;4449;50.872;4.714;2022-08-01T10:16:59;3.10;;;2.90;;
8825;SDS011;4449;50.872;4.714;2022-08-01T10:19:27;7.00;;;3.78;;
8825;SDS011;4449;50.872;4.714;2022-08-01T10:21:56;3.40;;;2.90;;
8825;SDS011;4449;50.872;4.714;2022-08-01T10:24:24;2.90;;;2.80;;
8825;SDS011;4449;50.872;4.714;2022-08-01T10:26:55;2.80;;;2.70;;
8825;SDS011;4449;50.872;4.714;2022-08-01T10:29:25;2.90;;;2.70;;
8825;SDS011;4449;50.872;4.714;2022-08-01T10:31:53;2.88;;;2.67;;
8825;SDS011;4449;50.872;4.714;2022-08-01T10:34:21;3.50;;;3.20;;
8825;SDS011;4449;50.872;4.714;2022-08-01T10:36:49;3.20;;;3.00;;
8825;SDS011;4449;50.872;4.714;2022-08-01T10:39:17;3.30;;;2.80;;
8825;SDS011;4449;50.872;4.714;2022-08-01T10:41:46;2.80;;;2.70;;
8825;SDS011;4449;50.872;4.714;2022-08-01T10:44:15;3.00;;;2.90;;
8825;SDS011;4449;50.872;4.714;2022-08-01T10:46:46;5.80;;;3.30;;
8825;SDS011;4449;50.872;4.714;2022-08-01T10:49:18;3.42;;;3.13;;
8825;SDS011;4449;50.872;4.714;2022-08-01T11:51:02;3.70;;;3.45;;
8825;SDS011;4449;50.872;4.714;2022-08-01T11:53:30;2.80;;;2.70;;
8825;SDS011;4449;50.872;4.714;2022-08-01T11:55:58;2.63;;;2.53;;
8825;SDS011;4449;50.872;4.714;2022-08-01T11:58:27;3.80;;;3.60;;
8825;SDS011;4449;50.872;4.714;2022-08-01T12:00:55;2.30;;;2.20;;
8825;SDS011;4449;50.872;4.714;2022-08-01T12:03:23;2.55;;;2.55;;
8825;SDS011;4449;50.872;4.714;2022-08-01T12:05:53;2.90;;;2.70;;
8825;SDS011;4449;50.872;4.714;2022-08-01T12:08:25;3.72;;;3.47;;
8825;SDS011;4449;50.872;4.714;2022-08-01T12:10:53;2.60;;;2.50;;
8825;SDS011;4449;50.872;4.714;2022-08-01T12:13:21;3.17;;;2.90;;
8825;SDS011;4449;50.872;4.714;2022-08-01T12:15:50;1.98;;;1.88;;
8825;SDS011;4449;50.872;4.714;2022-08-01T12:18:18;1.70;;;1.60;;
8825;SDS011;4449;50.872;4.714;2022-08-01T12:20:46;2.10;;;1.83;;
8825;SDS011;4449;50.872;4.714;2022-08-01T12:23:15;1.92;;;1.80;;
8825;SDS011;4449;50.872;4.714;2022-08-01T12:25:50;2.00;;;1.90;;
8825;SDS011;4449;50.872;4.714;2022-08-01T12:28:18;2.10;;;1.80;;
8825;SDS011;4449;50.872;4.714;2022-08-01T12:30:47;1.67;;;1.45;;
8825;SDS011;4449;50.872;4.714;2022-08-01T12:33:16;2.40;;;1.50;;
8825;SDS011;4449;50.872;4.714;2022-08-01T12:35:45;1.70;;;1.40;;
8825;SDS011;4449;50.872;4.714;2022-08-01T12:38:13;2.07;;;1.33;;
8825;SDS011;4449;50.872;4.714;2022-08-01T12:40:42;1.70;;;1.50;;
8825;SDS011;4449;50.872;4.714;2022-08-01T12:43:16;2.97;;;1.50;;
8825;SDS011;4449;50.872;4.714;2022-08-01T12:45:44;1.60;;;1.50;;
8825;SDS011;4449;50.872;4.714;2022-08-01T12:48:13;1.58;;;1.48;;
8825;SDS011;4449;50.872;4.714;2022-08-01T12:50:42;1.83;;;1.48;;
8825;SDS011;4449;50.872;4.714;2022-08-01T12:53:11;1.33;;;1.23;;
8825;SDS011;4449;50.872;4.714;2022-08-01T12:55:43;1.50;;;1.17;;
8825;SDS011;4449;50.872;4.714;2022-08-01T12:58:13;1.52;;;1.42;;
8825;SDS011;4449;50.872;4.714;2022-08-01T13:00:42;3.15;;;1.70;;
8825;SDS011;4449;50.872;4.714;2022-08-01T13:03:11;1.77;;;1.50;;
8825;SDS011;4449;50.872;4.714;2022-08-01T13:05:43;1.85;;;1.50;;
8825;SDS011;4449;50.872;4.714;2022-08-01T13:08:11;1.60;;;1.50;;
8825;SDS011;4449;50.872;4.714;2022-08-01T13:10:39;2.30;;;1.40;;
8825;SDS011;4449;50.872;4.714;2022-08-01T13:13:08;1.38;;;1.27;;
8825;SDS011;4449;50.872;4.714;2022-08-01T13:15:38;1.48;;;1.38;;
8825;SDS011;4449;50.872;4.714;2022-08-01T13:18:22;1.50;;;1.40;;
8825;SDS011;4449;50.872;4.714;2022-08-01T13:20:49;2.47;;;1.55;;
8825;SDS011;4449;50.872;4.714;2022-08-01T13:23:18;1.50;;;1.42;;
8825;SDS011;4449;50.872;4.714;2022-08-01T13:25:47;1.38;;;1.27;;
8825;SDS011;4449;50.872;4.714;2022-08-01T13:28:15;1.70;;;1.60;;
8825;SDS011;4449;50.872;4.714;2022-08-01T13:30:52;1.77;;;1.67;;
8825;SDS011;4449;50.872;4.714;2022-08-01T13:33:19;1.30;;;1.20;;
8825;SDS011;4449;50.872;4.714;2022-08-01T13:35:49;1.38;;;1.38;;
8825;SDS011;4449;50.872;4.714;2022-08-01T13:38:21;1.50;;;1.48;;
8825;SDS011;4449;50.872;4.714;2022-08-01T13:41:09;2.80;;;1.88;;
8825;SDS011;4449;50.872;4.714;2022-08-01T13:43:36;2.20;;;2.10;;
8825;SDS011;4449;50.872;4.714;2022-08-01T13:46:06;2.42;;;1.50;;
8825;SDS011;4449;50.872;4.714;2022-08-01T13:48:33;1.70;;;1.60;;
8825;SDS011;4449;50.872;4.714;2022-08-01T13:51:01;1.80;;;1.70;;
8825;SDS011;4449;50.872;4.714;2022-08-01T13:53:28;1.90;;;1.80;;
8825;SDS011;4449;50.872;4.714;2022-08-01T13:55:55;1.40;;;1.30;;
8825;SDS011;4449;50.872;4.714;2022-08-01T13:58:23;3.90;;;1.42;;
8825;SDS011;4449;50.872;4.714;2022-08-01T14:00:51;1.77;;;1.70;;
8825;SDS011;4449;50.872;4.714;2022-08-01T14:03:20;2.00;;;1.90;;
8825;SDS011;4449;50.872;4.714;2022-08-01T14:05:47;1.43;;;1.33;;
8825;SDS011;4449;50.872;4.714;2022-08-01T14:08:15;3.50;;;1.55;;
8825;SDS011;4449;50.872;4.714;2022-08-01T14:10:43;1.40;;;1.30;;
8825;SDS011;4449;50.872;4.714;2022-08-01T14:13:10;1.45;;;1.40;;
8825;SDS011;4449;50.872;4.714;2022-08-01T14:15:39;1.75;;;1.65;;
8825;SDS011;4449;50.872;4.714;2022-08-01T14:18:07;1.60;;;1.50;;
8825;SDS011;4449;50.872;4.714;2022-08-01T14:20:37;2.67;;;1.93;;
8825;SDS011;4449;50.872;4.714;2022-08-01T14:23:05;1.30;;;1.30;;
8825;SDS011;4449;50.872;4.714;2022-08-01T14:25:33;1.40;;;1.30;;
8825;SDS011;4449;50.872;4.714;2022-08-01T14:28:01;1.70;;;1.60;;
8825;SDS011;4449;50.872;4.714;2022-08-01T14:30:28;2.00;;;1.90;;
8825;SDS011;4449;50.872;4.714;2022-08-01T14:32:56;2.10;;;1.38;;
8825;SDS011;4449;50.872;4.714;2022-08-01T14:35:23;2.43;;;1.27;;
8825;SDS011;4449;50.872;4.714;2022-08-01T14:37:52;1.30;;;1.10;;
8825;SDS011;4449;50.872;4.714;2022-08-01T14:40:19;1.10;;;1.10;;
8825;SDS011;4449;50.872;4.714;2022-08-01T14:42:47;1.20;;;1.20;;
8825;SDS011;4449;50.872;4.714;2022-08-01T14:45:17;2.22;;;1.38;;
8825;SDS011;4449;50.872;4.714;2022-08-01T14:47:45;1.20;;;1.20;;
8825;SDS011;4449;50.872;4.714;2022-08-01T14:50:13;1.38;;;1.27;;
8825;SDS011;4449;50.872;4.714;2022-08-01T14:52:41;1.38;;;1.27;;
8825;SDS011;4449;50.872;4.714;2022-08-01T14:55:10;1.70;;;1.40;;
8825;SDS011;4449;50.872;4.714;2022-08-01T14:57:38;3.58;;;1.42;;
8825;SDS011;4449;50.872;4.714;2022-08-01T15:00:07;1.65;;;1.20;;
8825;SDS011;4449;50.872;4.714;2022-08-01T15:02:36;1.40;;;1.30;;
8825;SDS011;4449;50.872;4.714;2022-08-01T15:05:04;1.83;;;1.45;;
8825;SDS011;4449;50.872;4.714;2022-08-01T15:07:31;1.42;;;1.33;;
8825;SDS011;4449;50.872;4.714;2022-08-01T15:09:59;1.98;;;1.38;;
8825;SDS011;4449;50.872;4.714;2022-08-01T15:12:28;1.50;;;1.40;;
8825;SDS011;4449;50.872;4.714;2022-08-01T15:14:55;2.03;;;1.45;;
8825;SDS011;4449;50.872;4.714;2022-08-01T15:17:23;1.70;;;1.30;;
8825;SDS011;4449;50.872;4.714;2022-08-01T15:19:52;1.92;;;1.20;;
8825;SDS011;4449;50.872;4.714;2022-08-01T15:22:20;1.20;;;1.10;;
8825;SDS011;4449;50.872;4.714;2022-08-01T15:24:48;2.50;;;1.40;;
8825;SDS011;4449;50.872;4.714;2022-08-01T15:27:15;1.20;;;1.20;;
8825;SDS011;4449;50.872;4.714;2022-08-01T15:29:44;1.40;;;1.30;;
8825;SDS011;4449;50.872;4.714;2022-08-01T15:32:12;8.13;;;1.95;;
8825;SDS011;4449;50.872;4.714;2022-08-01T15:34:40;1.25;;;1.25;;
8825;SDS011;4449;50.872;4.714;2022-08-01T15:37:08;1.38;;;1.38;;
8825;SDS011;4449;50.872;4.714;2022-08-01T15:39:36;1.50;;;1.40;;
8825;SDS011;4449;50.872;4.714;2022-08-01T15:42:05;1.30;;;1.30;;
8825;SDS011;4449;50.872;4.714;2022-08-01T15:44:33;1.80;;;1.42;;
8825;SDS011;4449;50.872;4.714;2022-08-01T15:47:02;1.40;;;1.40;;
8825;SDS011;4449;50.872;4.714;2022-08-01T15:49:30;1.37;;;1.30;;
8825;SDS011;4449;50.872;4.714;2022-08-01T15:51:57;1.50;;;1.40;;
8825;SDS011;4449;50.872;4.714;2022-08-01T15:54:25;1.75;;;1.50;;
8825;SDS011;4449;50.872;4.714;2022-08-01T15:56:53;1.67;;;1.58;;
8825;SDS011;4449;50.872;4.714;2022-08-01T15:59:20;1.20;;;1.20;;
8825;SDS011;4449;50.872;4.714;2022-08-01T16:01:48;1.35;;;1.25;;
8825;SDS011;4449;50.872;4.714;2022-08-01T16:04:18;3.10;;;1.55;;
8825;SDS011;4449;50.872;4.714;2022-08-01T16:06:46;2.10;;;1.25;;
8825;SDS011;4449;50.872;4.714;2022-08-01T16:09:14;1.33;;;1.30;;
8825;SDS011;4449;50.872;4.714;2022-08-01T16:11:43;1.67;;;1.58;;
8825;SDS011;4449;50.872;4.714;2022-08-01T16:14:11;1.30;;;1.30;;
8825;SDS011;4449;50.872;4.714;2022-08-01T16:16:38;1.35;;;1.35;;
8825;SDS011;4449;50.872;4.714;2022-08-01T16:19:06;1.60;;;1.30;;
8825;SDS011;4449;50.872;4.714;2022-08-01T16:21:35;1.50;;;1.30;;
8825;SDS011;4449;50.872;4.714;2022-08-01T16:24:03;1.38;;;1.27;;